Time;durP1;ratioP1;P1;durP2;ratioP2;P2;SDS_P1;SDS_P2;PMS_P1;PMS_P2;Temp;Humidity;BMP_temperature;BMP_pressure;BME280_temperature;BME280_humidity;BME280_pressure;Samples;Min_cycle;Max_cycle;Signal;HPM_P1;HPM_P2
2023/07/11 00:00:34;;;;;;;;;;;23.30;50.90;;;19.58;94.42;95843.81;4971705;28;19917;-46
2023/07/11 00:02:59;;;;;;;;;;;23.30;51.00;;;19.55;94.11;95836.31;4983847;28;19941;-48
2023/07/11 00:05:25;;;;;;;;;;;23.30;51.00;;;19.52;94.28;95843.16;4971521;28;19944;-45
2023/07/11 00:07:51;;;;;;;;;;;23.20;51.00;;;19.46;94.38;95844.44;4963098;28;20347;-47
2023/07/11 00:10:19;;;;;;;;;;;23.20;51.10;;;19.42;94.48;95838.06;4972203;28;20391;-47
2023/07/11 00:12:45;;;;;;;;;;;23.10;51.10;;;19.37;94.76;95835.50;4971047;28;19935;-45
2023/07/11 00:15:14;;;;;;;;;;;23.10;51.20;;;19.34;95.46;95845.03;4982399;28;19949;-46
2023/07/11 00:17:41;;;;;;;;;;;23.10;51.30;;;19.32;95.59;95843.75;4990831;28;20328;-50
2023/07/11 00:20:11;;;;;;;;;;;23.00;51.40;;;19.30;96.08;95838.66;4981831;28;19944;-48
2023/07/11 00:22:37;;;;;;;;;;;23.00;51.50;;;19.29;96.05;95841.69;4980744;28;19918;-45
2023/07/11 00:25:04;;;;;;;;;;;23.00;51.60;;;19.27;96.53;95847.38;4971386;28;20008;-45
2023/07/11 00:27:31;;;;;;;;;;;23.00;51.70;;;19.26;96.43;95845.78;4988118;28;19915;-47
2023/07/11 00:29:57;;;;;;;;;;;23.00;51.80;;;19.24;96.43;95844.50;4980908;28;19953;-45
2023/07/11 00:32:23;;;;;;;;;;;22.90;51.80;;;19.18;97.03;95841.19;4966414;28;20012;-47
2023/07/11 00:34:48;;;;;;;;;;;23.00;51.90;;;19.16;97.24;95832.59;4993024;28;19909;-48
2023/07/11 00:37:15;;;;;;;;;;;22.90;51.90;;;19.13;97.28;95834.00;4985319;28;19910;-46
2023/07/11 00:39:41;;;;;;;;;;;22.90;52.00;;;19.13;97.14;95834.00;4974725;28;20388;-48
2023/07/11 00:42:09;;;;;;;;;;;22.90;52.10;;;19.12;97.46;95835.13;4991886;28;19913;-45
2023/07/11 00:44:53;;;;;;;;;;;22.90;52.20;;;19.11;96.96;95832.72;4982654;28;19916;-45
2023/07/11 00:47:21;;;;;;;;;;;22.80;52.20;;;19.07;97.29;95826.38;4991978;28;20376;-46
2023/07/11 00:49:51;;;;;;;;;;;22.90;52.30;;;19.05;97.91;95817.78;4980908;28;19917;-47
2023/07/11 00:52:18;;;;;;;;;;;22.80;52.40;;;19.02;98.11;95819.22;4989951;28;19909;-48
2023/07/11 00:54:51;;;;;;;;;;;22.80;52.40;;;19.03;98.35;95825.41;4965321;28;19913;-49
2023/07/11 00:57:18;;;;;;;;;;;22.80;52.60;;;19.00;98.05;95815.22;4979346;28;20291;-46
2023/07/11 00:59:45;;;;;;;;;;;22.80;52.60;;;18.93;98.96;95813.78;4991588;28;19918;-46
2023/07/11 01:02:25;;;;;;;;;;;22.70;52.60;;;18.90;99.66;95808.22;4978783;28;19987;-46
2023/07/11 01:04:51;;;;;;;;;;;22.70;52.60;;;18.87;99.88;95806.13;4974844;28;20364;-44
2023/07/11 01:07:26;;;;;;;;;;;22.70;52.70;;;18.86;99.91;95815.31;4976561;28;20012;-46
2023/07/11 01:09:52;;;;;;;;;;;22.70;52.80;;;18.84;100.00;95809.47;4984633;28;19909;-45
2023/07/11 01:12:19;;;;;;;;;;;22.60;52.90;;;18.79;100.00;95810.38;4990877;28;20012;-45
2023/07/11 01:14:49;;;;;;;;;;;22.60;52.90;;;18.78;100.00;95808.78;4968635;28;19913;-45
2023/07/11 01:17:35;;;;;;;;;;;22.60;53.10;;;18.81;100.00;95804.69;4993078;28;19951;-47
2023/07/11 01:20:05;;;;;;;;;;;22.60;53.10;;;18.77;100.00;95807.22;4982407;28;19940;-46
2023/07/11 01:22:32;;;;;;;;;;;22.50;53.20;;;18.79;100.00;95807.69;4990287;28;19913;-48
2023/07/11 01:25:12;;;;;;;;;;;22.50;53.20;;;18.77;100.00;95798.28;4989320;28;20021;-45
2023/07/11 01:27:42;;;;;;;;;;;22.50;53.40;;;18.77;100.00;95795.59;4992490;28;19978;-46
2023/07/11 01:30:13;;;;;;;;;;;22.50;53.50;;;18.72;100.00;95786.53;4987627;28;20368;-47
2023/07/11 01:32:39;;;;;;;;;;;22.50;53.50;;;18.71;100.00;95787.63;4967265;28;19948;-48
2023/07/11 01:35:06;;;;;;;;;;;22.50;53.60;;;18.67;100.00;95789.34;4975589;28;19957;-46
2023/07/11 01:37:32;;;;;;;;;;;22.40;53.60;;;18.63;100.00;95785.69;4979488;28;19917;-45
2023/07/11 01:39:58;;;;;;;;;;;22.40;53.60;;;18.60;100.00;95786.31;4994983;28;19909;-45
2023/07/11 01:42:26;;;;;;;;;;;22.40;53.70;;;18.58;100.00;95783.09;4993654;28;19917;-46
2023/07/11 01:44:52;;;;;;;;;;;22.40;53.80;;;18.50;100.00;95781.19;4993464;28;19932;-48
2023/07/11 01:47:18;;;;;;;;;;;22.30;53.80;;;18.48;100.00;95781.47;4994719;28;19951;-48
2023/07/11 01:49:44;;;;;;;;;;;22.30;53.80;;;18.46;100.00;95781.00;4972698;28;19949;-49
2023/07/11 01:52:22;;;;;;;;;;;22.30;53.90;;;18.43;100.00;95772.75;4991425;28;20363;-45
2023/07/11 01:54:49;;;;;;;;;;;22.30;54.00;;;18.40;100.00;95776.84;4987320;28;19913;-47
2023/07/11 01:57:15;;;;;;;;;;;22.20;54.10;;;18.39;100.00;95767.16;4981374;28;20376;-45
2023/07/11 01:59:42;;;;;;;;;;;22.20;54.20;;;18.38;100.00;95762.09;4994717;28;19921;-45
2023/07/11 02:02:10;;;;;;;;;;;22.20;54.30;;;18.35;100.00;95768.88;4982482;28;19909;-50
2023/07/11 02:04:38;;;;;;;;;;;22.20;54.30;;;18.33;100.00;95762.19;4994747;28;20011;-49
2023/07/11 02:07:05;;;;;;;;;;;22.10;54.40;;;18.36;100.00;95758.88;4988091;28;19918;-49
2023/07/11 02:09:31;;;;;;;;;;;22.10;54.40;;;18.34;100.00;95761.13;4988397;28;19910;-50
2023/07/11 02:11:58;;;;;;;;;;;22.10;54.50;;;18.31;100.00;95754.44;4994682;28;20004;-49
2023/07/11 02:14:24;;;;;;;;;;;22.10;54.60;;;18.33;100.00;95754.91;4978124;28;20276;-46
2023/07/11 02:16:52;;;;;;;;;;;22.10;54.60;;;18.33;100.00;95746.03;4994880;28;20372;-48
2023/07/11 02:19:21;;;;;;;;;;;22.10;54.60;;;18.31;100.00;95748.25;4987077;28;19921;-50
2023/07/11 02:21:47;;;;;;;;;;;22.10;54.70;;;18.31;100.00;95743.66;4962399;28;20287;-49
2023/07/11 02:24:16;;;;;;;;;;;22.10;54.80;;;18.33;100.00;95743.31;4982063;28;19909;-49
2023/07/11 02:26:42;;;;;;;;;;;22.10;54.80;;;18.27;100.00;95746.19;4975088;28;19937;-49
2023/07/11 02:29:09;;;;;;;;;;;22.00;54.80;;;18.21;100.00;95747.41;4981744;28;19913;-46
2023/07/11 02:31:36;;;;;;;;;;;22.00;54.90;;;18.25;100.00;95740.28;4978041;28;19941;-45
2023/07/11 02:34:03;;;;;;;;;;;22.00;54.90;;;18.22;100.00;95735.50;4974862;28;19913;-48
2023/07/11 02:36:30;;;;;;;;;;;22.00;55.00;;;18.23;100.00;95739.78;4974080;28;19917;-51
2023/07/11 02:38:57;;;;;;;;;;;22.00;55.10;;;18.15;100.00;95735.16;4981612;28;19913;-48
2023/07/11 02:41:24;;;;;;;;;;;22.00;55.10;;;18.19;100.00;95735.34;4993884;28;19963;-51
2023/07/11 02:43:50;;;;;;;;;;;22.00;55.20;;;18.14;100.00;95738.16;4990092;28;19917;-48
2023/07/11 02:46:16;;;;;;;;;;;21.90;55.20;;;18.12;100.00;95733.09;4993899;28;19909;-47
2023/07/11 02:48:43;;;;;;;;;;;21.90;55.30;;;18.09;100.00;95733.69;4991537;28;19910;-49
2023/07/11 02:51:10;;;;;;;;;;;21.90;55.40;;;18.07;100.00;95724.31;4988563;28;19920;-45
2023/07/11 02:53:36;;;;;;;;;;;21.90;55.40;;;18.07;100.00;95724.31;4993827;28;20003;-50
2023/07/11 02:56:02;;;;;;;;;;;21.90;55.50;;;18.02;100.00;95725.25;4981960;28;20280;-46
2023/07/11 02:58:29;;;;;;;;;;;21.90;55.60;;;18.04;100.00;95726.53;4993280;28;19949;-46
2023/07/11 03:00:59;;;;;;;;;;;21.80;55.60;;;18.02;100.00;95728.75;4988819;28;19910;-49
2023/07/11 03:03:24;;;;;;;;;;;21.80;55.70;;;17.98;100.00;95722.38;4980767;28;19913;-48
2023/07/11 03:05:52;;;;;;;;;;;21.80;55.70;;;17.93;100.00;95724.41;4993161;28;19967;-47
2023/07/11 03:08:19;;;;;;;;;;;21.70;55.80;;;17.92;100.00;95723.59;4977741;28;19909;-47
2023/07/11 03:10:45;;;;;;;;;;;21.70;55.80;;;17.92;100.00;95720.91;4971342;28;19921;-50
2023/07/11 03:13:12;;;;;;;;;;;21.70;55.90;;;17.91;100.00;95715.84;4979717;28;19934;-48
2023/07/11 03:15:39;;;;;;;;;;;21.70;56.00;;;17.91;100.00;95722.00;4982993;28;19909;-48
2023/07/11 03:18:07;;;;;;;;;;;21.70;56.10;;;17.95;100.00;95719.50;4993144;28;20426;-52
2023/07/11 03:20:38;;;;;;;;;;;21.70;56.20;;;17.92;100.00;95726.28;4972823;28;20318;-49
2023/07/11 03:23:04;;;;;;;;;;;21.80;56.30;;;17.91;100.00;95722.00;4982331;28;19909;-49
2023/07/11 03:25:30;;;;;;;;;;;21.70;56.30;;;17.89;100.00;95729.59;4981921;28;19971;-48
2023/07/11 03:27:56;;;;;;;;;;;21.70;56.30;;;17.89;100.00;95723.41;4992760;28;20364;-47
2023/07/11 03:30:21;;;;;;;;;;;21.70;56.30;;;17.88;100.00;95719.13;4990938;28;20459;-45
2023/07/11 03:32:47;;;;;;;;;;;21.70;56.40;;;17.85;100.00;95725.94;4978157;28;20008;-45
2023/07/11 03:35:13;;;;;;;;;;;21.70;56.40;;;17.83;100.00;95712.00;4992797;28;20011;-49
2023/07/11 03:37:39;;;;;;;;;;;21.70;56.40;;;17.82;100.00;95717.66;4981836;28;19936;-46
2023/07/11 03:40:05;;;;;;;;;;;21.60;56.40;;;17.78;100.00;95712.91;4989993;28;19947;-47
2023/07/11 03:42:31;;;;;;;;;;;21.70;56.50;;;17.77;100.00;95716.69;4991861;28;19921;-45
2023/07/11 03:44:56;;;;;;;;;;;21.60;56.50;;;17.76;100.00;95709.66;4970932;28;20291;-47
2023/07/11 03:47:23;;;;;;;;;;;21.60;56.60;;;17.75;100.00;95715.38;4973599;28;19917;-47
2023/07/11 03:49:49;;;;;;;;;;;21.60;56.60;;;17.74;100.00;95705.72;4977236;28;19909;-45
2023/07/11 03:52:14;;;;;;;;;;;21.60;56.60;;;17.73;100.00;95706.81;4994522;28;19932;-45
2023/07/11 03:54:40;;;;;;;;;;;21.60;56.70;;;17.73;100.00;95707.59;4990106;28;19929;-49
2023/07/11 03:57:06;;;;;;;;;;;21.60;56.80;;;17.75;100.00;95704.59;4983238;28;19995;-46
2023/07/11 03:59:33;;;;;;;;;;;21.70;56.80;;;17.75;100.00;95710.00;4992249;28;26891;-43
2023/07/11 04:01:59;;;;;;;;;;;21.70;56.90;;;17.75;100.00;95707.31;4967389;28;20388;-44
2023/07/11 04:04:25;;;;;;;;;;;21.70;56.90;;;17.73;100.00;95704.91;4987266;28;19955;-44
2023/07/11 04:06:51;;;;;;;;;;;21.70;56.80;;;17.73;100.00;95701.41;4971490;28;19924;-43
2023/07/11 04:09:16;;;;;;;;;;;21.70;56.80;;;17.78;100.00;95706.72;4989564;28;19909;-44
2023/07/11 04:11:42;;;;;;;;;;;21.80;56.90;;;17.77;100.00;95705.13;4992496;28;19909;-43
2023/07/11 04:14:10;;;;;;;;;;;21.80;56.90;;;17.85;100.00;95695.50;4982295;28;19945;-44
2023/07/11 04:16:36;;;;;;;;;;;21.80;57.00;;;17.88;100.00;95697.59;4992334;28;19917;-45
2023/07/11 04:19:02;;;;;;;;;;;21.80;57.00;;;17.90;100.00;95703.47;4987111;28;19917;-44
2023/07/11 04:21:28;;;;;;;;;;;21.80;57.00;;;17.96;100.00;95703.03;4983427;28;19963;-47
2023/07/11 04:23:54;;;;;;;;;;;21.90;57.10;;;18.06;100.00;95703.88;4979135;28;19909;-45
2023/07/11 04:26:20;;;;;;;;;;;21.90;57.10;;;18.12;100.00;95689.97;4987212;28;19916;-47
2023/07/11 04:28:46;;;;;;;;;;;22.00;57.10;;;18.21;100.00;95692.69;4989366;28;19932;-43
2023/07/11 04:31:13;;;;;;;;;;;22.10;57.20;;;18.29;100.00;95691.94;4982696;28;20316;-46
2023/07/11 04:33:38;;;;;;;;;;;22.20;57.20;;;18.46;100.00;95697.41;4988596;28;19909;-42
2023/07/11 04:36:15;;;;;;;;;;;22.30;57.20;;;18.66;100.00;95689.84;4992410;28;20276;-44
2023/07/11 04:38:43;;;;;;;;;;;22.40;57.20;;;18.80;100.00;95693.22;4979957;28;19993;-44
2023/07/11 04:41:11;;;;;;;;;;;22.50;57.70;;;18.99;100.00;95694.84;4992278;28;19909;-45
2023/07/11 04:43:38;;;;;;;;;;;22.60;57.00;;;19.10;100.00;95688.84;4988487;28;19948;-44
2023/07/11 04:46:05;;;;;;;;;;;22.80;57.60;;;19.24;100.00;95696.00;4992039;28;19916;-45
2023/07/11 04:48:32;;;;;;;;;;;22.90;57.00;;;19.35;100.00;95689.97;4971716;28;19914;-43
2023/07/11 04:51:03;;;;;;;;;;;23.00;56.80;;;19.45;100.00;95693.47;4980799;28;19909;-42
2023/07/11 04:53:30;;;;;;;;;;;23.20;56.70;;;19.59;100.00;95699.50;4995972;28;19909;-46
2023/07/11 04:55:59;;;;;;;;;;;23.30;56.60;;;19.67;100.00;95701.44;4984500;28;20329;-45
2023/07/11 04:58:26;;;;;;;;;;;23.40;56.50;;;19.80;100.00;95700.44;4995530;28;19933;-45
2023/07/11 05:01:10;;;;;;;;;;;23.60;56.50;;;20.01;99.97;95699.78;4991349;28;19996;-42
2023/07/11 05:03:36;;;;;;;;;;;23.70;56.40;;;20.21;99.56;95707.22;4976953;28;20032;-43
2023/07/11 05:06:04;;;;;;;;;;;23.90;56.30;;;20.39;98.18;95696.34;4995597;28;19924;-43
2023/07/11 05:08:30;;;;;;;;;;;24.10;56.20;;;20.60;98.00;95691.03;4972341;28;20319;-42
2023/07/11 05:11:05;;;;;;;;;;;24.30;56.10;;;20.81;95.54;95686.47;4995539;28;19916;-46
2023/07/11 05:13:33;;;;;;;;;;;24.50;56.00;;;21.02;94.32;95695.38;4986622;28;19913;-46
2023/07/11 05:16:11;;;;;;;;;;;24.70;55.80;;;21.25;92.58;95692.41;4994697;28;20273;-44
2023/07/11 05:18:40;;;;;;;;;;;25.00;55.60;;;21.52;90.71;95695.72;4993970;28;19936;-45
2023/07/11 05:21:09;;;;;;;;;;;25.30;55.50;;;21.74;89.10;95687.22;4971712;28;19920;-44
2023/07/11 05:23:36;;;;;;;;;;;25.60;55.30;;;21.98;88.39;95686.50;4982353;28;19917;-42
2023/07/11 05:26:03;;;;;;;;;;;25.80;55.20;;;22.25;85.46;95687.84;4966725;28;19941;-43
2023/07/11 05:28:29;;;;;;;;;;;26.10;55.00;;;22.39;84.88;95691.03;4989022;28;19914;-43
2023/07/11 05:30:56;;;;;;;;;;;26.30;54.80;;;22.55;84.26;95695.78;4989817;28;19909;-46
2023/07/11 05:33:23;;;;;;;;;;;26.50;54.50;;;22.74;82.21;95697.94;4987239;28;19924;-44
2023/07/11 05:38:56;;;;;;;;;;;27.00;54.10;;;23.29;79.77;95697.34;4983456;28;19918;-46
2023/07/11 05:41:22;;;;;;;;;;;27.30;53.90;;;23.63;78.33;95697.94;4995095;28;19909;-46
2023/07/11 05:43:48;;;;;;;;;;;27.60;53.70;;;23.90;74.90;95695.59;4988935;28;19909;-43
2023/07/11 05:46:14;;;;;;;;;;;27.90;53.50;;;24.17;74.53;95700.22;4995002;28;19910;-45
2023/07/11 05:48:40;;;;;;;;;;;28.20;53.20;;;24.49;72.66;95694.03;4986068;28;19932;-50
2023/07/11 05:51:14;;;;;;;;;;;28.50;52.90;;;24.70;71.78;95692.63;4983466;28;19909;-44
2023/07/11 05:53:40;;;;;;;;;;;28.80;52.60;;;24.95;69.26;95688.91;4995015;28;19917;-49
2023/07/11 05:56:06;;;;;;;;;;;29.10;52.30;;;25.15;68.97;95696.00;4973562;28;20401;-44
2023/07/11 05:58:34;;;;;;;;;;;29.40;52.00;;;25.37;67.91;95683.63;4994212;28;19964;-45
2023/07/11 06:01:01;;;;;;;;;;;29.70;51.70;;;25.60;66.32;95681.81;4970979;28;20376;-44
2023/07/11 06:03:30;;;;;;;;;;;30.00;51.40;;;25.89;65.81;95684.34;4975199;28;19963;-43
2023/07/11 06:06:01;;;;;;;;;;;30.30;51.00;;;26.22;63.73;95684.53;4994564;28;20442;-45
2023/07/11 06:08:29;;;;;;;;;;;30.60;50.70;;;26.28;62.33;95680.38;4985185;28;20291;-48
2023/07/11 06:11:01;;;;;;;;;;;30.90;50.30;;;26.47;61.03;95681.47;4972215;28;19910;-47
2023/07/11 06:13:30;;;;;;;;;;;31.20;49.90;;;26.77;60.51;95687.06;4964029;28;20459;-46
2023/07/11 06:16:10;;;;;;;;;;;31.50;49.50;;;26.95;59.44;95679.13;4981984;28;19924;-44
2023/07/11 06:18:38;;;;;;;;;;;31.70;49.20;;;27.01;59.45;95666.72;4992708;28;20016;-49
2023/07/11 06:21:06;;;;;;;;;;;32.00;48.80;;;27.25;59.54;95662.78;4983791;28;19909;-44
2023/07/11 06:23:32;;;;;;;;;;;32.30;48.50;;;27.50;57.59;95667.81;4978829;28;19936;-48
2023/07/11 06:25:58;;;;;;;;;;;32.60;48.10;;;27.66;56.34;95668.38;4982223;28;19909;-48
2023/07/11 06:28:25;;;;;;;;;;;32.90;47.80;;;27.91;56.25;95665.97;4974212;28;19910;-45
2023/07/11 06:30:51;;;;;;;;;;;33.10;47.40;;;28.16;55.39;95662.72;4989793;28;20033;-47
2023/07/11 06:33:18;;;;;;;;;;;33.40;47.10;;;28.33;54.65;95668.38;4984638;28;19909;-46
2023/07/11 06:35:51;;;;;;;;;;;33.60;46.70;;;28.51;55.07;95667.75;4977295;28;19910;-45
2023/07/11 06:38:18;;;;;;;;;;;33.70;46.40;;;28.69;54.31;95663.22;4960968;28;19929;-45
2023/07/11 06:40:55;;;;;;;;;;;34.00;46.10;;;28.83;53.80;95660.59;4973943;28;20060;-49
2023/07/11 06:43:24;;;;;;;;;;;34.20;45.90;;;28.92;53.84;95667.69;4974594;28;19975;-45
2023/07/11 06:45:53;;;;;;;;;;;34.40;45.60;;;29.12;53.29;95673.72;4993918;28;19916;-46
2023/07/11 06:48:23;;;;;;;;;;;34.50;45.10;;;29.29;51.89;95664.81;4993293;28;19917;-44
2023/07/11 06:50:53;;;;;;;;;;;34.60;44.90;;;29.35;51.41;95657.00;4987548;28;19909;-48
2023/07/11 06:53:21;;;;;;;;;;;34.90;44.80;;;29.56;51.34;95664.56;4968392;28;19909;-45
2023/07/11 06:55:52;;;;;;;;;;;35.10;44.50;;;29.83;50.07;95667.81;4983635;28;20005;-49
2023/07/11 06:58:19;;;;;;;;;;;35.30;44.20;;;29.63;50.59;95664.59;4993823;28;20043;-47
2023/07/11 07:01:02;;;;;;;;;;;35.50;43.90;;;29.92;49.67;95668.22;4974350;28;19934;-47
2023/07/11 07:03:29;;;;;;;;;;;35.70;43.60;;;30.26;49.03;95666.00;4972905;28;20372;-45
2023/07/11 07:06:00;;;;;;;;;;;35.80;43.30;;;30.21;48.93;95663.66;4974176;28;19909;-43
2023/07/11 07:08:26;;;;;;;;;;;36.00;43.00;;;30.45;48.12;95653.84;4979290;28;19916;-46
2023/07/11 07:10:53;;;;;;;;;;;36.20;42.80;;;30.59;47.50;95662.09;4993636;28;20008;-45
2023/07/11 07:13:24;;;;;;;;;;;36.50;42.60;;;30.86;47.43;95667.22;4986100;28;19917;-48
2023/07/11 07:15:53;;;;;;;;;;;36.60;42.20;;;31.05;45.92;95664.03;4971707;28;19909;-43
2023/07/11 07:18:20;;;;;;;;;;;36.80;42.00;;;31.21;45.67;95662.84;4985625;28;19917;-45
2023/07/11 07:20:48;;;;;;;;;;;37.00;41.60;;;31.51;45.73;95663.19;4962838;28;20460;-45
2023/07/11 07:23:14;;;;;;;;;;;37.20;41.40;;;31.66;46.08;95669.44;4974324;28;19909;-45
2023/07/11 07:25:41;;;;;;;;;;;37.30;41.50;;;31.77;46.53;95666.63;4988993;28;20334;-48
2023/07/11 07:28:07;;;;;;;;;;;37.40;40.70;;;31.56;46.06;95670.25;4991079;28;20004;-46
2023/07/11 07:30:34;;;;;;;;;;;37.50;40.40;;;31.47;45.93;95667.16;4992456;28;19913;-45
2023/07/11 07:33:01;;;;;;;;;;;37.50;40.10;;;31.75;44.99;95667.03;4981034;28;19919;-45
2023/07/11 07:35:27;;;;;;;;;;;37.60;40.00;;;32.00;43.81;95666.94;4992929;28;19998;-45
2023/07/11 07:37:52;;;;;;;;;;;37.70;39.80;;;32.23;43.41;95660.13;4982150;28;20376;-45
2023/07/11 07:40:18;;;;;;;;;;;37.80;39.70;;;32.51;42.55;95663.91;4992784;28;20277;-47
2023/07/11 07:42:44;;;;;;;;;;;38.00;39.60;;;32.71;42.45;95656.63;4990921;28;19924;-46
2023/07/11 07:45:10;;;;;;;;;;;38.20;39.30;;;32.98;41.09;95670.63;4973115;28;19929;-46
2023/07/11 07:47:36;;;;;;;;;;;38.30;39.00;;;33.10;41.71;95664.59;4973838;28;20368;-48
2023/07/11 07:50:03;;;;;;;;;;;38.50;38.90;;;33.12;40.30;95664.16;4978668;28;19996;-45
2023/07/11 07:52:29;;;;;;;;;;;38.80;38.60;;;33.24;40.88;95671.94;4992883;28;19913;-45
2023/07/11 07:54:55;;;;;;;;;;;39.00;38.40;;;33.45;40.25;95670.94;4989253;28;19917;-48
2023/07/11 07:57:20;;;;;;;;;;;39.20;37.90;;;33.51;40.28;95665.78;4985529;28;19923;-46
2023/07/11 07:59:46;;;;;;;;;;;39.30;37.70;;;33.65;39.15;95664.81;4992617;28;20387;-48
2023/07/11 08:02:12;;;;;;;;;;;39.50;37.50;;;33.64;39.65;95672.31;4966599;28;19917;-45
2023/07/11 08:04:37;;;;;;;;;;;39.70;37.30;;;33.79;39.42;95661.88;4992040;28;19909;-45
2023/07/11 08:07:04;;;;;;;;;;;39.80;37.00;;;33.99;38.42;95662.00;4983720;28;20021;-45
2023/07/11 08:09:30;;;;;;;;;;;40.00;36.80;;;34.06;37.78;95661.94;4992095;28;19984;-48
2023/07/11 08:12:04;;;;;;;;;;;40.10;36.50;;;34.43;38.58;95655.47;4992396;28;19921;-44
2023/07/11 08:14:30;;;;;;;;;;;40.40;36.30;;;34.72;36.63;95657.81;4975876;28;19909;-47
2023/07/11 08:16:56;;;;;;;;;;;40.60;36.20;;;35.03;36.69;95652.97;4992386;28;20280;-45
2023/07/11 08:19:22;;;;;;;;;;;40.80;35.90;;;35.37;36.50;95646.41;4961365;28;19918;-48
2023/07/11 08:21:48;;;;;;;;;;;41.10;35.60;;;35.61;36.12;95641.63;4980782;28;19910;-46
2023/07/11 08:24:14;;;;;;;;;;;41.40;35.40;;;35.35;36.61;95633.03;4962814;28;20350;-46
2023/07/11 08:26:40;;;;;;;;;;;41.50;35.10;;;35.41;35.95;95630.50;4986704;28;20335;-47
2023/07/11 08:29:06;;;;;;;;;;;41.70;34.90;;;35.57;36.25;95627.06;4993353;28;19910;-48
2023/07/11 08:31:31;;;;;;;;;;;41.80;34.50;;;35.90;36.43;95628.75;4981813;28;19947;-45
2023/07/11 08:33:57;;;;;;;;;;;42.00;34.40;;;36.40;34.97;95620.53;4848209;28;39011;-46
2023/07/11 08:36:23;;;;;;;;;;;42.20;34.20;;;36.50;33.52;95623.06;4987443;28;19909;-46
2023/07/11 08:38:49;;;;;;;;;;;42.40;34.00;;;36.85;34.76;95619.84;4954733;28;19914;-46
2023/07/11 08:41:48;;;;;;;;;;;42.60;33.70;;;37.05;33.29;95615.00;4996177;28;19909;-48
2023/07/11 08:44:17;;;;;;;;;;;42.80;33.50;;;37.43;31.78;95628.25;4973749;28;19914;-50
2023/07/11 08:46:57;;;;;;;;;;;43.10;33.30;;;37.57;31.14;95616.75;4996162;28;19909;-46
2023/07/11 08:49:47;;;;;;;;;;;43.30;32.80;;;37.67;30.85;95620.44;4971732;28;20401;-45
2023/07/11 08:52:17;;;;;;;;;;;43.40;32.50;;;37.47;30.87;95618.63;4980615;28;20287;-47
2023/07/11 08:55:09;;;;;;;;;;;43.60;32.80;;;37.31;31.64;95620.66;4976788;28;19972;-48
2023/07/11 08:57:47;;;;;;;;;;;43.70;31.80;;;37.42;32.60;95616.38;4973909;28;19932;-49
2023/07/11 09:00:17;;;;;;;;;;;43.90;32.30;;;37.59;31.24;95616.31;4996102;28;19914;-47
2023/07/11 09:03:39;;;;;;;;;;;44.10;31.30;;;37.69;31.66;95613.22;4978585;28;19948;-52
2023/07/11 09:06:18;;;;;;;;;;;44.40;31.10;;;38.19;31.14;95600.63;4897565;29;19946;-46
2023/07/11 09:08:48;;;;;;;;;;;44.50;30.80;;;38.51;29.99;95603.63;4970479;28;19944;-48
2023/07/11 09:12:21;;;;;;;;;;;44.70;30.70;;;38.66;30.21;95596.38;4978629;28;19913;-47
2023/07/11 09:15:40;;;;;;;;;;;44.90;30.40;;;39.03;28.65;95593.97;4901574;28;20054;-46
2023/07/11 09:18:42;;;;;;;;;;;45.30;30.10;;;39.10;28.54;95590.91;4916658;29;19915;-47
2023/07/11 09:21:32;;;;;;;;;;;45.50;29.80;;;38.99;28.52;95593.31;4891798;29;19949;-46
2023/07/11 09:24:11;;;;;;;;;;;45.70;29.50;;;39.50;28.25;95593.09;4981058;28;20410;-47
2023/07/11 09:26:48;;;;;;;;;;;45.80;29.40;;;40.12;27.44;95584.78;4991706;28;19909;-52
2023/07/11 09:29:16;;;;;;;;;;;46.00;29.80;;;39.79;27.28;95579.66;4975743;28;19921;-48
2023/07/11 09:32:07;;;;;;;;;;;46.10;29.00;;;39.46;28.19;95578.53;4965873;28;19910;-46
2023/07/11 09:34:38;;;;;;;;;;;46.20;28.70;;;39.54;27.90;95579.81;4978157;28;20328;-46
2023/07/11 09:37:37;;;;;;;;;;;46.10;28.50;;;39.26;28.49;95573.25;4983430;28;19921;-46
2023/07/11 09:40:15;;;;;;;;;;;46.10;28.50;;;39.30;28.66;95571.13;4983550;28;19920;-46
2023/07/11 09:42:51;;;;;;;;;;;46.00;28.30;;;39.59;28.33;95567.31;4977409;28;20384;-48
2023/07/11 09:45:28;;;;;;;;;;;46.00;28.30;;;39.36;27.44;95568.53;4983203;28;19910;-46
2023/07/11 09:48:13;;;;;;;;;;;46.00;28.00;;;39.50;28.66;95560.44;4995020;28;19909;-46
2023/07/11 09:50:53;;;;;;;;;;;45.90;28.00;;;39.41;27.57;95568.75;4990134;28;20000;-46
2023/07/11 09:53:26;;;;;;;;;;;45.80;27.60;;;39.66;26.80;95567.03;4995001;28;19917;-47
2023/07/11 09:56:00;;;;;;;;;;;45.70;27.60;;;39.81;27.65;95567.31;4985475;28;20395;-47
2023/07/11 09:58:33;;;;;;;;;;;45.60;27.50;;;39.83;27.09;95560.00;4994858;28;19980;-49
2023/07/11 10:01:04;;;;;;;;;;;45.60;27.60;;;39.94;26.73;95552.03;4996674;23;20039;-60
2023/07/11 10:03:35;;;;;;;;;;;45.70;27.60;;;39.56;26.68;95552.28;5001604;28;20016;-58
2023/07/11 10:06:04;;;;;;;;;;;45.80;27.50;;;39.53;27.46;95550.41;5008470;28;19909;-58
2023/07/11 10:08:36;;;;;;;;;;;45.70;27.20;;;39.81;27.31;95551.34;4995814;28;19913;-58
2023/07/11 10:11:07;;;;;;;;;;;45.80;27.30;;;39.99;26.82;95550.63;5014545;28;19909;-58
2023/07/11 10:13:33;;;;;;;;;;;45.80;27.20;;;39.95;27.65;95550.00;4993525;28;19937;-59
2023/07/11 10:16:00;;;;;;;;;;;46.00;27.10;;;40.32;27.74;95545.34;5009567;28;19912;-59
2023/07/11 10:18:35;;;;;;;;;;;46.00;27.10;;;40.55;26.37;95548.81;5014349;28;19913;-59
2023/07/11 10:21:18;;;;;;;;;;;46.20;27.10;;;40.77;27.14;95538.31;5004783;28;19938;-59
2023/07/11 10:23:48;;;;;;;;;;;46.40;26.90;;;40.68;26.14;95538.34;5014210;28;19913;-59
2023/07/11 10:26:24;;;;;;;;;;;46.60;26.80;;;40.75;26.70;95534.47;5004463;28;19909;-59
2023/07/11 10:29:10;;;;;;;;;;;46.70;26.80;;;40.74;27.22;95544.81;5014239;28;19964;-59
2023/07/11 10:31:49;;;;;;;;;;;46.80;26.70;;;41.02;25.32;95533.66;4998277;28;19929;-59
2023/07/11 10:34:29;;;;;;;;;;;47.00;26.60;;;41.02;25.52;95519.72;5011648;28;20418;-59
2023/07/11 10:37:19;;;;;;;;;;;47.20;26.50;;;41.30;25.75;95523.28;5010633;28;19913;-59
2023/07/11 10:39:55;;;;;;;;;;;47.30;26.50;;;41.70;25.45;95516.69;4988854;28;20339;-59
2023/07/11 10:42:33;;;;;;;;;;;47.50;26.30;;;41.99;24.68;95510.53;4994169;28;20351;-59
2023/07/11 10:45:15;;;;;;;;;;;47.80;26.10;;;41.64;24.12;95505.34;5006897;28;19912;-59
2023/07/11 10:48:17;;;;;;;;;;;47.90;26.00;;;41.61;24.42;95504.28;5013914;28;19909;-59
2023/07/11 10:51:10;;;;;;;;;;;48.00;25.80;;;41.81;24.31;95500.19;5002680;28;20490;-59
2023/07/11 10:54:05;;;;;;;;;;;47.90;25.60;;;42.20;23.52;95501.09;4996456;28;20000;-59
2023/07/11 10:56:39;;;;;;;;;;;48.20;25.70;;;42.62;23.05;95499.44;4995148;28;20007;-59
2023/07/11 10:59:08;;;;;;;;;;;48.50;25.60;;;42.65;22.85;95484.50;5013403;28;19928;-60
2023/07/11 11:01:49;;;;;;;;;;;48.70;25.40;;;42.73;23.13;95475.28;5002945;28;19929;-60
2023/07/11 11:04:52;;;;;;;;;;;48.80;25.20;;;43.02;22.40;95473.78;5012516;28;19931;-60
2023/07/11 11:07:40;;;;;;;;;;;49.00;25.10;;;42.92;22.43;95472.31;4981969;28;19917;-60
2023/07/11 11:10:42;;;;;;;;;;;49.10;25.00;;;42.53;22.82;95466.72;4996102;28;20007;-60
2023/07/11 11:13:32;;;;;;;;;;;49.20;24.80;;;42.60;22.34;95457.19;5006252;28;19937;-60
2023/07/11 11:16:23;;;;;;;;;;;49.10;24.80;;;42.86;21.97;95454.63;5013421;28;19995;-60
2023/07/11 11:19:19;;;;;;;;;;;49.20;24.70;;;42.86;21.83;95455.41;4993488;28;20434;-58
2023/07/11 11:21:57;;;;;;;;;;;49.30;24.60;;;43.02;21.11;95448.56;4996188;28;20302;-59
2023/07/11 11:25:00;;;;;;;;;;;49.50;24.20;;;43.25;21.22;95444.16;5002808;28;19909;-59
2023/07/11 11:27:43;;;;;;;;;;;49.50;23.90;;;43.11;21.49;95445.69;5004801;28;19936;-59
2023/07/11 11:30:25;;;;;;;;;;;49.70;23.80;;;42.77;20.54;95444.28;4990161;28;19909;-59
2023/07/11 11:33:30;;;;;;;;;;;49.60;23.50;;;42.46;21.61;95437.03;5009459;28;19909;-59
2023/07/11 11:36:19;;;;;;;;;;;49.50;23.00;;;42.76;21.00;95428.75;5012294;28;19920;-59